sensor_id;sensor_type;location;lat;lon;timestamp;pressure;altitude;pressure_sealevel;temperature;humidity
70407;BME280;57821;52.202;0.154;2022-07-29T00:01:00;101892.22;;;15.68;58.41
70407;BME280;57821;52.202;0.154;2022-07-29T00:03:27;101895.72;;;15.72;58.39
70407;BME280;57821;52.202;0.154;2022-07-29T00:05:54;101903.56;;;15.70;58.63
70407;BME280;57821;52.202;0.154;2022-07-29T00:08:20;101903.56;;;15.69;59.12
70407;BME280;57821;52.202;0.154;2022-07-29T00:10:47;101903.59;;;15.66;59.23
70407;BME280;57821;52.202;0.154;2022-07-29T00:13:13;101894.00;;;15.63;59.08
70407;BME280;57821;52.202;0.154;2022-07-29T00:15:40;101892.28;;;15.60;59.24
70407;BME280;57821;52.202;0.154;2022-07-29T00:18:07;101891.44;;;15.57;59.38
70407;BME280;57821;52.202;0.154;2022-07-29T00:20:33;101892.34;;;15.54;59.73
70407;BME280;57821;52.202;0.154;2022-07-29T00:23:00;101888.81;;;15.49;59.88
70407;BME280;57821;52.202;0.154;2022-07-29T00:25:27;101891.47;;;15.48;59.48
70407;BME280;57821;52.202;0.154;2022-07-29T00:27:53;101889.72;;;15.45;59.85
70407;BME280;57821;52.202;0.154;2022-07-29T00:30:20;101888.84;;;15.43;59.94
70407;BME280;57821;52.202;0.154;2022-07-29T00:32:46;101885.41;;;15.41;60.06
70407;BME280;57821;52.202;0.154;2022-07-29T00:35:13;101887.16;;;15.38;59.90
70407;BME280;57821;52.202;0.154;2022-07-29T00:37:39;101864.59;;;15.23;60.60
70407;BME280;57821;52.202;0.154;2022-07-29T00:40:07;101886.31;;;15.34;60.33
70407;BME280;57821;52.202;0.154;2022-07-29T00:42:52;101871.53;;;15.29;60.86
70407;BME280;57821;52.202;0.154;2022-07-29T00:45:19;101816.81;;;14.97;60.24
70407;BME280;57821;52.202;0.154;2022-07-29T00:47:46;101882.84;;;15.28;60.46
70407;BME280;57821;52.202;0.154;2022-07-29T00:50:13;101875.88;;;15.27;60.04
70407;BME280;57821;52.202;0.154;2022-07-29T00:52:41;101809.06;;;14.85;59.89
70407;BME280;57821;52.202;0.154;2022-07-29T00:55:11;101875.94;;;15.19;60.17
70407;BME280;57821;52.202;0.154;2022-07-29T00:57:38;101856.81;;;15.11;59.86
70407;BME280;57821;52.202;0.154;2022-07-29T01:00:09;101883.78;;;15.14;59.88
70407;BME280;57821;52.202;0.154;2022-07-29T01:02:36;101866.41;;;15.12;59.91
70407;BME280;57821;52.202;0.154;2022-07-29T01:05:04;101872.50;;;15.08;59.92
70407;BME280;57821;52.202;0.154;2022-07-29T01:07:33;101853.38;;;14.97;59.99
70407;BME280;57821;52.202;0.154;2022-07-29T01:10:02;101862.97;;;15.01;60.31
70407;BME280;57821;52.202;0.154;2022-07-29T01:12:30;101869.94;;;14.99;60.38
70407;BME280;57821;52.202;0.154;2022-07-29T01:14:58;101858.63;;;14.94;60.24
70407;BME280;57821;52.202;0.154;2022-07-29T01:20:38;101869.13;;;14.85;60.99
70407;BME280;57821;52.202;0.154;2022-07-29T01:23:33;101863.06;;;14.78;61.16
70407;BME280;57821;52.202;0.154;2022-07-29T01:29:41;101871.78;;;14.69;61.98
70407;BME280;57821;52.202;0.154;2022-07-29T01:32:17;101867.44;;;14.65;61.24
70407;BME280;57821;52.202;0.154;2022-07-29T01:39:57;101846.59;;;14.52;61.63
70407;BME280;57821;52.202;0.154;2022-07-29T01:42:39;101864.81;;;14.62;62.35
70407;BME280;57821;52.202;0.154;2022-07-29T01:47:41;101871.78;;;14.63;62.14
70407;BME280;57821;52.202;0.154;2022-07-29T01:50:12;101799.66;;;14.29;62.56
70407;BME280;57821;52.202;0.154;2022-07-29T01:52:45;101867.44;;;14.65;62.71
70407;BME280;57821;52.202;0.154;2022-07-29T01:55:15;101803.97;;;14.33;62.56
70407;BME280;57821;52.202;0.154;2022-07-29T01:57:46;101806.63;;;14.30;63.33
70407;BME280;57821;52.202;0.154;2022-07-29T02:00:14;101863.09;;;14.66;62.79
70407;BME280;57821;52.202;0.154;2022-07-29T02:02:43;101852.66;;;14.58;63.00
70407;BME280;57821;52.202;0.154;2022-07-29T02:05:12;101863.97;;;14.63;63.04
70407;BME280;57821;52.202;0.154;2022-07-29T02:07:43;101857.88;;;14.66;63.00
70407;BME280;57821;52.202;0.154;2022-07-29T02:10:13;101863.94;;;14.68;63.71
70407;BME280;57821;52.202;0.154;2022-07-29T02:12:42;101857.00;;;14.65;63.54
70407;BME280;57821;52.202;0.154;2022-07-29T02:15:16;101861.31;;;14.68;63.49
70407;BME280;57821;52.202;0.154;2022-07-29T02:17:54;101854.41;;;14.61;63.60
70407;BME280;57821;52.202;0.154;2022-07-29T02:20:25;101858.75;;;14.66;63.32
70407;BME280;57821;52.202;0.154;2022-07-29T02:22:53;101842.22;;;14.60;63.98
70407;BME280;57821;52.202;0.154;2022-07-29T02:25:22;101849.16;;;14.64;63.53
70407;BME280;57821;52.202;0.154;2022-07-29T02:27:50;101857.88;;;14.63;64.06
70407;BME280;57821;52.202;0.154;2022-07-29T02:30:18;101851.78;;;14.62;63.77
70407;BME280;57821;52.202;0.154;2022-07-29T02:32:48;101860.50;;;14.61;63.54
70407;BME280;57821;52.202;0.154;2022-07-29T02:35:16;101857.88;;;14.60;63.47
70407;BME280;57821;52.202;0.154;2022-07-29T02:37:44;101797.06;;;14.24;63.88
70407;BME280;57821;52.202;0.154;2022-07-29T02:40:13;101803.16;;;14.25;63.58
70407;BME280;57821;52.202;0.154;2022-07-29T02:42:42;101841.41;;;14.49;63.85
70407;BME280;57821;52.202;0.154;2022-07-29T02:45:10;101858.78;;;14.54;63.95
70407;BME280;57821;52.202;0.154;2022-07-29T02:47:42;101784.03;;;14.12;63.64
70407;BME280;57821;52.202;0.154;2022-07-29T02:53:07;101805.78;;;14.13;63.72
70407;BME280;57821;52.202;0.154;2022-07-29T02:55:45;101856.19;;;14.41;64.18
70407;BME280;57821;52.202;0.154;2022-07-29T02:58:17;101812.72;;;14.11;63.51
70407;BME280;57821;52.202;0.154;2022-07-29T03:00:49;101862.28;;;14.44;63.90
70407;BME280;57821;52.202;0.154;2022-07-29T03:03:18;101857.91;;;14.35;63.92
70407;BME280;57821;52.202;0.154;2022-07-29T03:05:45;101862.28;;;14.41;63.83
70407;BME280;57821;52.202;0.154;2022-07-29T03:08:12;101870.13;;;14.38;63.69
70407;BME280;57821;52.202;0.154;2022-07-29T03:10:43;101811.88;;;13.99;63.88
70407;BME280;57821;52.202;0.154;2022-07-29T03:13:11;101876.16;;;14.35;64.35
70407;BME280;57821;52.202;0.154;2022-07-29T03:15:39;101874.41;;;14.33;64.35
70407;BME280;57821;52.202;0.154;2022-07-29T03:18:06;101877.06;;;14.31;64.11
70407;BME280;57821;52.202;0.154;2022-07-29T03:20:33;101872.69;;;14.29;64.06
70407;BME280;57821;52.202;0.154;2022-07-29T03:23:00;101870.97;;;14.25;64.17
70407;BME280;57821;52.202;0.154;2022-07-29T03:25:26;101874.44;;;14.25;64.40
70407;BME280;57821;52.202;0.154;2022-07-29T03:27:53;101877.06;;;14.24;64.20
70407;BME280;57821;52.202;0.154;2022-07-29T03:30:19;101873.59;;;14.20;64.33
70407;BME280;57821;52.202;0.154;2022-07-29T03:32:49;101876.19;;;14.19;64.35
70407;BME280;57821;52.202;0.154;2022-07-29T03:35:18;101870.09;;;14.17;65.11
70407;BME280;57821;52.202;0.154;2022-07-29T03:37:46;101870.97;;;14.16;65.23
70407;BME280;57821;52.202;0.154;2022-07-29T03:40:19;101874.47;;;14.13;65.40
70407;BME280;57821;52.202;0.154;2022-07-29T03:42:48;101877.94;;;14.11;65.09
70407;BME280;57821;52.202;0.154;2022-07-29T03:45:18;101874.47;;;14.09;65.00
70407;BME280;57821;52.202;0.154;2022-07-29T03:47:50;101816.25;;;13.72;65.22
70407;BME280;57821;52.202;0.154;2022-07-29T03:50:25;101884.00;;;14.05;65.27
70407;BME280;57821;52.202;0.154;2022-07-29T03:52:52;101884.91;;;14.03;65.46
70407;BME280;57821;52.202;0.154;2022-07-29T03:55:19;101880.56;;;14.02;65.10
70407;BME280;57821;52.202;0.154;2022-07-29T03:57:46;101872.72;;;13.95;65.48
70407;BME280;57821;52.202;0.154;2022-07-29T04:00:13;101880.56;;;13.97;65.49
70407;BME280;57821;52.202;0.154;2022-07-29T04:02:40;101881.41;;;13.96;65.48
70407;BME280;57821;52.202;0.154;2022-07-29T04:05:12;101819.72;;;13.55;65.95
70407;BME280;57821;52.202;0.154;2022-07-29T04:07:40;101881.41;;;13.90;65.85
70407;BME280;57821;52.202;0.154;2022-07-29T04:10:07;101879.69;;;13.90;65.51
70407;BME280;57821;52.202;0.154;2022-07-29T04:12:33;101896.19;;;13.89;65.85
70407;BME280;57821;52.202;0.154;2022-07-29T04:15:02;101891.84;;;13.88;66.13
70407;BME280;57821;52.202;0.154;2022-07-29T04:17:29;101895.31;;;13.87;65.41
70407;BME280;57821;52.202;0.154;2022-07-29T04:19:55;101875.34;;;13.74;65.76
70407;BME280;57821;52.202;0.154;2022-07-29T04:22:22;101887.50;;;13.83;66.01
70407;BME280;57821;52.202;0.154;2022-07-29T04:24:50;101867.50;;;13.68;65.53
70407;BME280;57821;52.202;0.154;2022-07-29T04:27:17;101893.56;;;13.80;65.48
70407;BME280;57821;52.202;0.154;2022-07-29T04:29:44;101891.84;;;13.79;65.48
70407;BME280;57821;52.202;0.154;2022-07-29T04:32:23;101871.84;;;13.68;65.85
70407;BME280;57821;52.202;0.154;2022-07-29T04:34:50;101897.03;;;13.78;66.25
70407;BME280;57821;52.202;0.154;2022-07-29T04:37:18;101893.56;;;13.74;66.53
70407;BME280;57821;52.202;0.154;2022-07-29T04:39:44;101890.97;;;13.74;66.14
70407;BME280;57821;52.202;0.154;2022-07-29T04:42:11;101883.13;;;13.77;66.71
70407;BME280;57821;52.202;0.154;2022-07-29T04:44:38;101885.75;;;13.77;65.98
70407;BME280;57821;52.202;0.154;2022-07-29T04:47:08;101881.41;;;13.76;66.63
70407;BME280;57821;52.202;0.154;2022-07-29T04:49:38;101823.16;;;13.45;66.93
70407;BME280;57821;52.202;0.154;2022-07-29T04:52:05;101880.53;;;13.76;67.12
70407;BME280;57821;52.202;0.154;2022-07-29T04:54:32;101881.41;;;13.76;66.50
70407;BME280;57821;52.202;0.154;2022-07-29T04:56:59;101884.88;;;13.78;66.34
70407;BME280;57821;52.202;0.154;2022-07-29T04:59:25;101881.38;;;13.81;66.58
70407;BME280;57821;52.202;0.154;2022-07-29T05:01:52;101891.84;;;13.84;66.93
70407;BME280;57821;52.202;0.154;2022-07-29T05:04:18;101895.31;;;13.89;67.34
70407;BME280;57821;52.202;0.154;2022-07-29T05:06:46;101897.06;;;13.94;66.74
70407;BME280;57821;52.202;0.154;2022-07-29T05:09:12;101893.56;;;14.00;66.61
70407;BME280;57821;52.202;0.154;2022-07-29T05:11:39;101892.72;;;14.06;66.77
70407;BME280;57821;52.202;0.154;2022-07-29T05:14:06;101889.25;;;14.13;67.39
70407;BME280;57821;52.202;0.154;2022-07-29T05:16:33;101886.63;;;14.19;67.39
70407;BME280;57821;52.202;0.154;2022-07-29T05:18:59;101888.38;;;14.26;66.80
70407;BME280;57821;52.202;0.154;2022-07-29T05:21:26;101897.06;;;14.31;67.32
70407;BME280;57821;52.202;0.154;2022-07-29T05:23:52;101891.88;;;14.37;67.03
70407;BME280;57821;52.202;0.154;2022-07-29T05:26:19;101903.16;;;14.44;67.12
70407;BME280;57821;52.202;0.154;2022-07-29T05:28:45;101903.16;;;14.50;66.58
70407;BME280;57821;52.202;0.154;2022-07-29T05:31:12;101902.28;;;14.55;66.53
70407;BME280;57821;52.202;0.154;2022-07-29T05:33:39;101880.56;;;14.44;67.41
70407;BME280;57821;52.202;0.154;2022-07-29T05:36:05;101910.09;;;14.67;67.29
70407;BME280;57821;52.202;0.154;2022-07-29T05:38:32;101910.91;;;14.74;66.91
70407;BME280;57821;52.202;0.154;2022-07-29T05:40:59;101907.41;;;14.79;67.18
70407;BME280;57821;52.202;0.154;2022-07-29T05:43:27;101908.28;;;14.85;67.13
70407;BME280;57821;52.202;0.154;2022-07-29T05:45:54;101911.72;;;14.91;67.00
70407;BME280;57821;52.202;0.154;2022-07-29T05:48:21;101903.03;;;14.95;66.50
70407;BME280;57821;52.202;0.154;2022-07-29T05:50:48;101899.53;;;14.98;66.95
70407;BME280;57821;52.202;0.154;2022-07-29T05:53:14;101885.63;;;14.96;66.90
70407;BME280;57821;52.202;0.154;2022-07-29T05:55:49;101895.09;;;15.15;66.36
70407;BME280;57821;52.202;0.154;2022-07-29T05:58:17;101906.41;;;15.23;66.41
70407;BME280;57821;52.202;0.154;2022-07-29T06:00:44;101906.38;;;15.28;66.52
70407;BME280;57821;52.202;0.154;2022-07-29T06:03:11;101906.34;;;15.32;66.56
70407;BME280;57821;52.202;0.154;2022-07-29T06:05:38;101909.78;;;15.39;66.64
70407;BME280;57821;52.202;0.154;2022-07-29T06:08:04;101909.78;;;15.42;66.81
70407;BME280;57821;52.202;0.154;2022-07-29T06:10:31;101913.25;;;15.48;66.15
70407;BME280;57821;52.202;0.154;2022-07-29T06:12:58;101915.84;;;15.54;66.39
70407;BME280;57821;52.202;0.154;2022-07-29T06:15:24;101926.28;;;15.60;66.17
70407;BME280;57821;52.202;0.154;2022-07-29T06:17:51;101926.25;;;15.64;66.15
70407;BME280;57821;52.202;0.154;2022-07-29T06:20:29;101927.03;;;15.73;65.85
70407;BME280;57821;52.202;0.154;2022-07-29T06:22:57;101928.75;;;15.82;66.16
70407;BME280;57821;52.202;0.154;2022-07-29T06:25:24;101924.34;;;15.90;65.88
70407;BME280;57821;52.202;0.154;2022-07-29T06:27:51;101919.91;;;15.99;65.70
70407;BME280;57821;52.202;0.154;2022-07-29T06:30:17;101922.47;;;16.07;65.60
70407;BME280;57821;52.202;0.154;2022-07-29T06:32:44;101925.88;;;16.15;65.54
70407;BME280;57821;52.202;0.154;2022-07-29T06:35:10;101919.72;;;16.24;65.21
70407;BME280;57821;52.202;0.154;2022-07-29T06:37:57;101923.09;;;16.36;65.17
70407;BME280;57821;52.202;0.154;2022-07-29T06:40:25;101917.75;;;16.46;65.46
70407;BME280;57821;52.202;0.154;2022-07-29T06:42:52;101920.28;;;16.55;64.51
70407;BME280;57821;52.202;0.154;2022-07-29T06:45:19;101910.63;;;16.64;64.63
70407;BME280;57821;52.202;0.154;2022-07-29T06:47:45;101909.63;;;16.76;64.64
70407;BME280;57821;52.202;0.154;2022-07-29T06:50:12;101904.28;;;16.85;64.09
70407;BME280;57821;52.202;0.154;2022-07-29T06:52:38;101898.00;;;16.98;63.82
70407;BME280;57821;52.202;0.154;2022-07-29T06:55:05;101902.22;;;17.11;63.72
70407;BME280;57821;52.202;0.154;2022-07-29T06:57:32;101907.28;;;17.25;63.74
70407;BME280;57821;52.202;0.154;2022-07-29T06:59:59;101897.50;;;17.36;63.22
70407;BME280;57821;52.202;0.154;2022-07-29T07:02:26;101899.88;;;17.56;63.13
70407;BME280;57821;52.202;0.154;2022-07-29T07:04:53;101903.22;;;17.67;62.80
70407;BME280;57821;52.202;0.154;2022-07-29T07:07:19;101896.84;;;17.85;63.08
70407;BME280;57821;52.202;0.154;2022-07-29T07:09:46;101906.25;;;17.99;62.42
70407;BME280;57821;52.202;0.154;2022-07-29T07:12:13;101910.38;;;18.13;62.40
70407;BME280;57821;52.202;0.154;2022-07-29T07:14:39;101918.03;;;18.25;61.86
70407;BME280;57821;52.202;0.154;2022-07-29T07:17:06;101920.47;;;18.35;62.24
70407;BME280;57821;52.202;0.154;2022-07-29T07:19:33;101927.34;;;18.44;61.47
70407;BME280;57821;52.202;0.154;2022-07-29T07:21:59;101929.81;;;18.55;61.15
70407;BME280;57821;52.202;0.154;2022-07-29T07:24:26;101934.84;;;18.65;61.01
70407;BME280;57821;52.202;0.154;2022-07-29T07:26:53;101938.16;;;18.76;61.02
70407;BME280;57821;52.202;0.154;2022-07-29T07:29:19;101935.38;;;18.84;61.06
70407;BME280;57821;52.202;0.154;2022-07-29T07:31:46;101924.78;;;18.88;60.66
70407;BME280;57821;52.202;0.154;2022-07-29T07:34:13;101930.66;;;19.03;59.88
70407;BME280;57821;52.202;0.154;2022-07-29T07:36:40;101911.41;;;18.99;60.12
70407;BME280;57821;52.202;0.154;2022-07-29T07:39:06;101932.84;;;19.22;60.30
70407;BME280;57821;52.202;0.154;2022-07-29T07:41:33;101934.44;;;19.31;59.85
70407;BME280;57821;52.202;0.154;2022-07-29T07:43:59;101939.53;;;19.39;59.33
70407;BME280;57821;52.202;0.154;2022-07-29T07:46:26;101940.22;;;19.48;59.09
70407;BME280;57821;52.202;0.154;2022-07-29T07:48:53;101942.63;;;19.57;58.80
70407;BME280;57821;52.202;0.154;2022-07-29T07:51:19;101948.59;;;19.65;58.58
70407;BME280;57821;52.202;0.154;2022-07-29T07:53:46;101951.03;;;19.75;58.66
70407;BME280;57821;52.202;0.154;2022-07-29T07:56:12;101941.13;;;19.86;59.00
70407;BME280;57821;52.202;0.154;2022-07-29T07:58:39;101930.38;;;19.95;58.76
70407;BME280;57821;52.202;0.154;2022-07-29T08:01:06;101931.88;;;20.05;58.01
70407;BME280;57821;52.202;0.154;2022-07-29T08:03:32;101909.03;;;20.07;58.27
70407;BME280;57821;52.202;0.154;2022-07-29T08:05:59;101924.38;;;20.25;57.36
70407;BME280;57821;52.202;0.154;2022-07-29T08:08:26;101933.75;;;20.37;56.84
70407;BME280;57821;52.202;0.154;2022-07-29T08:10:52;101933.53;;;20.44;56.73
70407;BME280;57821;52.202;0.154;2022-07-29T08:13:20;101937.72;;;20.53;56.38
70407;BME280;57821;52.202;0.154;2022-07-29T08:15:47;101920.91;;;20.57;56.51
70407;BME280;57821;52.202;0.154;2022-07-29T08:18:14;101932.72;;;20.75;54.90
70407;BME280;57821;52.202;0.154;2022-07-29T08:20:40;101931.50;;;20.88;53.46
70407;BME280;57821;52.202;0.154;2022-07-29T08:23:07;101934.69;;;20.99;52.93
70407;BME280;57821;52.202;0.154;2022-07-29T08:25:37;101936.16;;;21.09;51.96
70407;BME280;57821;52.202;0.154;2022-07-29T08:28:05;101932.41;;;21.19;51.19
70407;BME280;57821;52.202;0.154;2022-07-29T08:30:32;101930.31;;;21.30;51.46
70407;BME280;57821;52.202;0.154;2022-07-29T08:32:59;101922.09;;;21.40;50.66
70407;BME280;57821;52.202;0.154;2022-07-29T08:35:27;101918.38;;;21.47;50.90
70407;BME280;57821;52.202;0.154;2022-07-29T08:38:00;101912.00;;;21.54;50.62
70407;BME280;57821;52.202;0.154;2022-07-29T08:40:27;101929.09;;;21.70;50.29
70407;BME280;57821;52.202;0.154;2022-07-29T08:42:58;101923.50;;;21.79;49.42
70407;BME280;57821;52.202;0.154;2022-07-29T08:45:26;101869.59;;;21.60;49.04
70407;BME280;57821;52.202;0.154;2022-07-29T08:47:55;101927.31;;;21.98;48.22
70407;BME280;57821;52.202;0.154;2022-07-29T08:50:21;101927.00;;;22.07;47.79
70407;BME280;57821;52.202;0.154;2022-07-29T08:52:48;101920.63;;;22.15;47.95
70407;BME280;57821;52.202;0.154;2022-07-29T08:55:16;101920.31;;;22.24;47.61
70407;BME280;57821;52.202;0.154;2022-07-29T08:57:47;101926.16;;;22.33;46.28
70407;BME280;57821;52.202;0.154;2022-07-29T09:00:21;101925.97;;;22.38;46.06
70407;BME280;57821;52.202;0.154;2022-07-29T09:02:51;101874.06;;;22.12;45.58
70407;BME280;57821;52.202;0.154;2022-07-29T09:05:23;101881.50;;;22.26;45.36
70407;BME280;57821;52.202;0.154;2022-07-29T09:07:50;101922.41;;;22.65;45.55
70407;BME280;57821;52.202;0.154;2022-07-29T09:10:17;101928.19;;;22.76;44.76
70407;BME280;57821;52.202;0.154;2022-07-29T09:12:44;101920.03;;;22.82;44.66
70407;BME280;57821;52.202;0.154;2022-07-29T09:15:11;101925.59;;;23.00;44.89
70407;BME280;57821;52.202;0.154;2022-07-29T09:17:48;101925.22;;;23.09;43.79
70407;BME280;57821;52.202;0.154;2022-07-29T09:20:21;101918.66;;;23.19;44.00
70407;BME280;57821;52.202;0.154;2022-07-29T09:22:49;101923.50;;;23.31;43.77
70407;BME280;57821;52.202;0.154;2022-07-29T09:28:08;101925.38;;;23.52;43.23
70407;BME280;57821;52.202;0.154;2022-07-29T09:30:36;101931.72;;;23.70;43.24
70407;BME280;57821;52.202;0.154;2022-07-29T09:33:15;101920.56;;;23.84;42.68
70407;BME280;57821;52.202;0.154;2022-07-29T09:35:42;101922.72;;;23.96;42.63
70407;BME280;57821;52.202;0.154;2022-07-29T09:38:22;101920.38;;;24.10;42.55
70407;BME280;57821;52.202;0.154;2022-07-29T09:40:59;101874.22;;;23.94;41.60
70407;BME280;57821;52.202;0.154;2022-07-29T09:43:31;101924.25;;;24.43;41.93
70407;BME280;57821;52.202;0.154;2022-07-29T09:46:14;101919.63;;;24.69;41.13
70407;BME280;57821;52.202;0.154;2022-07-29T09:48:40;101918.94;;;25.04;39.83
70407;BME280;57821;52.202;0.154;2022-07-29T09:51:20;101899.94;;;25.32;39.29
70407;BME280;57821;52.202;0.154;2022-07-29T09:54:21;101907.53;;;25.77;38.17
70407;BME280;57821;52.202;0.154;2022-07-29T09:56:48;101919.00;;;26.13;36.93
70407;BME280;57821;52.202;0.154;2022-07-29T09:59:15;101915.00;;;26.39;35.91
70407;BME280;57821;52.202;0.154;2022-07-29T10:01:42;101919.84;;;26.66;35.69
70407;BME280;57821;52.202;0.154;2022-07-29T10:04:09;101916.53;;;26.95;36.19
70407;BME280;57821;52.202;0.154;2022-07-29T10:06:55;101913.16;;;27.40;34.95
70407;BME280;57821;52.202;0.154;2022-07-29T10:09:30;101922.00;;;27.88;33.97
70407;BME280;57821;52.202;0.154;2022-07-29T10:12:08;101877.00;;;27.97;33.17
70407;BME280;57821;52.202;0.154;2022-07-29T10:14:35;101918.16;;;28.53;32.58
70407;BME280;57821;52.202;0.154;2022-07-29T10:17:03;101913.03;;;28.64;32.80
70407;BME280;57821;52.202;0.154;2022-07-29T10:19:31;101902.50;;;28.77;32.34
70407;BME280;57821;52.202;0.154;2022-07-29T10:21:58;101916.78;;;29.04;31.66
70407;BME280;57821;52.202;0.154;2022-07-29T10:24:27;101918.75;;;29.29;31.00
70407;BME280;57821;52.202;0.154;2022-07-29T10:26:55;101919.13;;;29.51;30.18
70407;BME280;57821;52.202;0.154;2022-07-29T10:29:22;101922.75;;;29.77;29.92
70407;BME280;57821;52.202;0.154;2022-07-29T10:34:33;101915.34;;;30.22;28.89
70407;BME280;57821;52.202;0.154;2022-07-29T10:42:31;101910.16;;;30.83;28.02
70407;BME280;57821;52.202;0.154;2022-07-29T10:45:01;101908.09;;;30.99;27.44
70407;BME280;57821;52.202;0.154;2022-07-29T10:47:30;101872.63;;;30.96;28.21
70407;BME280;57821;52.202;0.154;2022-07-29T10:50:00;101904.72;;;31.34;27.56
70407;BME280;57821;52.202;0.154;2022-07-29T10:58:30;101910.44;;;31.90;25.57
70407;BME280;57821;52.202;0.154;2022-07-29T11:00:57;101904.84;;;32.04;26.16
70407;BME280;57821;52.202;0.154;2022-07-29T11:03:45;101876.97;;;32.06;24.27
70407;BME280;57821;52.202;0.154;2022-07-29T11:06:16;101903.97;;;32.27;25.74
70407;BME280;57821;52.202;0.154;2022-07-29T11:09:19;101908.28;;;32.30;24.84
70407;BME280;57821;52.202;0.154;2022-07-29T11:12:00;101906.56;;;32.29;24.60
70407;BME280;57821;52.202;0.154;2022-07-29T11:14:57;101902.66;;;32.33;23.52
70407;BME280;57821;52.202;0.154;2022-07-29T11:17:24;101907.81;;;32.36;24.16
70407;BME280;57821;52.202;0.154;2022-07-29T11:22:58;101899.25;;;32.31;23.53
70407;BME280;57821;52.202;0.154;2022-07-29T11:25:24;101901.81;;;32.32;23.52
70407;BME280;57821;52.202;0.154;2022-07-29T11:28:17;101853.88;;;32.04;23.85
70407;BME280;57821;52.202;0.154;2022-07-29T11:30:52;101884.00;;;32.31;23.03
70407;BME280;57821;52.202;0.154;2022-07-29T11:33:32;101889.22;;;32.21;23.92
70407;BME280;57821;52.202;0.154;2022-07-29T11:36:19;101891.03;;;32.21;24.14
70407;BME280;57821;52.202;0.154;2022-07-29T11:39:26;101904.97;;;32.26;23.16
70407;BME280;57821;52.202;0.154;2022-07-29T11:47:46;101897.28;;;32.33;22.72
70407;BME280;57821;52.202;0.154;2022-07-29T11:50:28;101894.00;;;32.29;23.65
70407;BME280;57821;52.202;0.154;2022-07-29T11:52:55;101884.72;;;32.33;22.93
70407;BME280;57821;52.202;0.154;2022-07-29T11:55:22;101885.94;;;32.29;22.89
70407;BME280;57821;52.202;0.154;2022-07-29T11:57:59;101886.41;;;32.23;22.67
70407;BME280;57821;52.202;0.154;2022-07-29T12:00:32;101842.41;;;31.91;23.45
70407;BME280;57821;52.202;0.154;2022-07-29T12:03:02;101847.03;;;31.89;23.45
70407;BME280;57821;52.202;0.154;2022-07-29T12:08:11;101886.06;;;32.04;22.66
70407;BME280;57821;52.202;0.154;2022-07-29T12:10:40;101869.91;;;31.81;22.37
70407;BME280;57821;52.202;0.154;2022-07-29T12:13:08;101865.94;;;31.63;22.43
70407;BME280;57821;52.202;0.154;2022-07-29T12:15:35;101870.88;;;31.57;22.91
70407;BME280;57821;52.202;0.154;2022-07-29T12:18:19;101873.09;;;31.39;23.29
70407;BME280;57821;52.202;0.154;2022-07-29T12:20:57;101869.53;;;31.15;23.27
70407;BME280;57821;52.202;0.154;2022-07-29T12:23:32;101868.88;;;30.98;24.22
70407;BME280;57821;52.202;0.154;2022-07-29T12:26:04;101827.41;;;30.55;24.62
70407;BME280;57821;52.202;0.154;2022-07-29T12:28:37;101859.19;;;30.59;23.97
70407;BME280;57821;52.202;0.154;2022-07-29T12:31:04;101863.13;;;30.41;24.50
70407;BME280;57821;52.202;0.154;2022-07-29T12:33:34;101868.69;;;30.26;24.62
70407;BME280;57821;52.202;0.154;2022-07-29T12:36:01;101855.78;;;30.05;25.13
70407;BME280;57821;52.202;0.154;2022-07-29T12:38:34;101863.91;;;29.91;25.24
70407;BME280;57821;52.202;0.154;2022-07-29T12:41:02;101850.75;;;29.61;25.19
70407;BME280;57821;52.202;0.154;2022-07-29T12:43:30;101858.63;;;29.50;24.97
70407;BME280;57821;52.202;0.154;2022-07-29T12:45:57;101854.19;;;29.22;25.16
70407;BME280;57821;52.202;0.154;2022-07-29T12:48:34;101851.94;;;29.02;25.74
70407;BME280;57821;52.202;0.154;2022-07-29T12:51:02;101857.19;;;28.89;26.05
70407;BME280;57821;52.202;0.154;2022-07-29T12:53:30;101858.41;;;28.84;26.19
70407;BME280;57821;52.202;0.154;2022-07-29T12:55:58;101857.13;;;28.77;26.26
70407;BME280;57821;52.202;0.154;2022-07-29T13:03:26;101852.88;;;28.58;26.87
70407;BME280;57821;52.202;0.154;2022-07-29T13:05:53;101830.59;;;28.45;26.62
70407;BME280;57821;52.202;0.154;2022-07-29T13:08:19;101841.41;;;28.42;26.83
70407;BME280;57821;52.202;0.154;2022-07-29T13:10:48;101843.72;;;28.34;27.09
70407;BME280;57821;52.202;0.154;2022-07-29T13:13:15;101847.53;;;28.30;26.84
70407;BME280;57821;52.202;0.154;2022-07-29T13:15:43;101835.81;;;28.18;27.45
70407;BME280;57821;52.202;0.154;2022-07-29T13:18:30;101802.56;;;27.94;27.12
70407;BME280;57821;52.202;0.154;2022-07-29T13:21:10;101804.53;;;27.76;26.87
70407;BME280;57821;52.202;0.154;2022-07-29T13:23:37;101844.94;;;27.99;27.17
70407;BME280;57821;52.202;0.154;2022-07-29T13:26:08;101842.44;;;27.96;27.75
70407;BME280;57821;52.202;0.154;2022-07-29T13:28:35;101844.00;;;28.00;27.86
70407;BME280;57821;52.202;0.154;2022-07-29T13:31:01;101842.69;;;28.07;27.52
70407;BME280;57821;52.202;0.154;2022-07-29T13:33:28;101836.53;;;28.21;27.90
70407;BME280;57821;52.202;0.154;2022-07-29T13:35:55;101838.75;;;28.28;27.90
70407;BME280;57821;52.202;0.154;2022-07-29T13:38:22;101835.31;;;28.26;27.95
70407;BME280;57821;52.202;0.154;2022-07-29T13:40:56;101835.69;;;28.20;28.22
70407;BME280;57821;52.202;0.154;2022-07-29T13:43:23;101835.69;;;28.20;28.13
70407;BME280;57821;52.202;0.154;2022-07-29T13:45:49;101838.25;;;28.22;27.74
70407;BME280;57821;52.202;0.154;2022-07-29T13:48:16;101796.19;;;27.97;27.87
70407;BME280;57821;52.202;0.154;2022-07-29T13:50:42;101830.09;;;28.25;28.16
70407;BME280;57821;52.202;0.154;2022-07-29T13:53:09;101833.72;;;28.38;28.21